August 11, 2022

Time Code Weather Temp. Visibility Ceiling Wind METAR/SPECI
01:50
V
15 °C 10 km+ - 050° 050° 2 kt METAR EDDS 102350Z AUTO 05002KT CAVOK 15/08 Q1022
01:20
V
16 °C 10 km+ - Var Var 1 kt METAR EDDS 102320Z AUTO VRB01KT CAVOK 16/08 Q1022
00:50
V
18 °C 10 km+ - 050° 050° 4 kt METAR EDDS 102250Z AUTO 05004KT CAVOK 18/08 Q1022
00:20
V
17 °C 10 km+ - 080° 080° 3 kt METAR EDDS 102220Z AUTO 08003KT CAVOK 17/08 Q1022

August 10, 2022

Time Code Weather Temp. Visibility Ceiling Wind METAR/SPECI
23:50
V
18 °C 10 km+ - 070° 070° 3 kt METAR EDDS 102150Z AUTO 07003KT CAVOK 18/08 Q1022
23:20
V
18 °C 10 km+ - 100° 100° 2 kt METAR EDDS 102120Z AUTO 10002KT CAVOK 18/08 Q1022
22:50
V
19 °C 10 km+ - 090° 090° 2 kt METAR EDDS 102050Z AUTO 09002KT CAVOK 19/08 Q1022
22:20
V
20 °C 10 km+ - 070° 070° 3 kt METAR EDDS 102020Z AUTO 07003KT 030V100 CAVOK 20/08 Q1022
21:50
V
20 °C 10 km+ - 080° 080° 3 kt METAR EDDS 101950Z AUTO 08003KT CAVOK 20/08 Q1022 NOSIG
21:20
V
21 °C 10 km+ - 100° 100° 3 kt METAR EDDS 101920Z AUTO 10003KT CAVOK 21/08 Q1022 NOSIG
20:50
V
23 °C 10 km+ - 070° 070° 4 kt METAR EDDS 101850Z AUTO 07004KT CAVOK 23/07 Q1021 NOSIG
20:20
V
24 °C 10 km+ - 090° 090° 4 kt METAR EDDS 101820Z AUTO 09004KT CAVOK 24/08 Q1021 NOSIG
19:50
V
26 °C 10 km+ - 090° 090° 5 kt METAR EDDS 101750Z AUTO 09005KT 060V120 CAVOK 26/07 Q1021 NOSIG
19:20
V
27 °C 10 km+ - 110° 110° 7 kt METAR EDDS 101720Z AUTO 11007KT 070V190 CAVOK 27/06 Q1021 NOSIG
18:50
V
27 °C 10 km+ - 100° 100° 9 kt METAR EDDS 101650Z AUTO 10009KT 070V150 CAVOK 27/07 Q1021 NOSIG
18:20
V
28 °C 10 km+ - 090° 090° 10 kt METAR EDDS 101620Z AUTO 09010KT 060V120 CAVOK 28/06 Q1021 NOSIG
17:50
V
28 °C 10 km+ - 090° 090° 11 kt METAR EDDS 101550Z AUTO 09011KT CAVOK 28/07 Q1022 NOSIG
17:20
V
28 °C 10 km+ - 090° 090° 12 kt METAR EDDS 101520Z AUTO 09012KT 070V130 CAVOK 28/06 Q1022 NOSIG
16:50
V
28 °C 10 km+ - 080° 080° 11 kt METAR EDDS 101450Z AUTO 08011KT 050V110 CAVOK 28/07 Q1022 NOSIG
16:20
V
28 °C 10 km+ - 090° 090° 11 kt METAR EDDS 101420Z AUTO 09011KT 060V120 CAVOK 28/08 Q1022 NOSIG
15:50
V
28 °C 10 km+ - 100° 100° 9 kt METAR EDDS 101350Z AUTO 10009KT 050V190 CAVOK 28/07 Q1022 NOSIG
15:20
V
28 °C 10 km+ - 090° 090° 12 kt METAR EDDS 101320Z AUTO 09012KT 060V150 CAVOK 28/07 Q1023 NOSIG
14:50
V
27 °C 10 km+ - 090° 090° 11 kt METAR EDDS 101250Z AUTO 09011KT 050V130 CAVOK 27/07 Q1023 NOSIG
14:20
V
27 °C 10 km+ - 100° 100° 11 kt METAR EDDS 101220Z AUTO 10011KT 060V160 CAVOK 27/07 Q1023 NOSIG
13:50
V
26 °C 10 km+ - 070° 070° 12 - 22 kt METAR EDDS 101150Z AUTO 07012G22KT 040V100 CAVOK 26/07 Q1023 NOSIG
13:20
V
27 °C 10 km+ - 070° 070° 13 kt METAR EDDS 101120Z AUTO 07013KT 040V100 CAVOK 27/07 Q1023 NOSIG
12:50
V
27 °C 10 km+ - 090° 090° 11 kt METAR EDDS 101050Z AUTO 09011KT 050V140 CAVOK 27/08 Q1023 NOSIG
12:20
V
26 °C 10 km+ - 090° 090° 11 kt METAR EDDS 101020Z AUTO 09011KT 040V150 CAVOK 26/08 Q1024 NOSIG
11:50
V
26 °C 10 km+ - 090° 090° 12 kt METAR EDDS 100950Z AUTO 09012KT 060V130 CAVOK 26/08 Q1024 NOSIG
11:20
V
25 °C 10 km+ - 080° 080° 10 kt METAR EDDS 100920Z AUTO 08010KT 050V140 CAVOK 25/09 Q1024 NOSIG
10:50
V
24 °C 10 km+ - 100° 100° 11 kt METAR EDDS 100850Z AUTO 10011KT 060V140 CAVOK 24/09 Q1024 NOSIG
10:20
V
24 °C 10 km+ - 070° 070° 13 kt METAR EDDS 100820Z AUTO 07013KT CAVOK 24/10 Q1024 NOSIG
09:50
V
22 °C 10 km+ - 080° 080° 10 kt METAR EDDS 100750Z AUTO 08010KT 050V120 CAVOK 22/10 Q1024 NOSIG
09:20
V
22 °C 10 km+ - 080° 080° 8 kt METAR EDDS 100720Z AUTO 08008KT CAVOK 22/09 Q1024 NOSIG
08:50
V
21 °C 10 km+ - 080° 080° 7 kt METAR EDDS 100650Z AUTO 08007KT CAVOK 21/09 Q1024 NOSIG
08:20
V
20 °C 10 km+ - 070° 070° 7 kt METAR EDDS 100620Z AUTO 07007KT 040V100 CAVOK 20/10 Q1024 NOSIG
07:50
V
19 °C 10 km+ - 070° 070° 3 kt METAR EDDS 100550Z AUTO 07003KT 040V150 CAVOK 19/10 Q1024 NOSIG
07:20
V
18 °C 10 km+ - 110° 110° 2 kt METAR EDDS 100520Z AUTO 11002KT CAVOK 18/10 Q1024 NOSIG
06:50
V
17 °C 10 km+ - 040° 040° 2 kt METAR EDDS 100450Z AUTO 04002KT CAVOK 17/09 Q1024 NOSIG
06:20
V
15 °C 10 km+ - Var Var 1 kt METAR EDDS 100420Z AUTO VRB01KT CAVOK 15/09 Q1024
05:50
V
15 °C 10 km+ - Var Var 1 kt METAR EDDS 100350Z AUTO VRB01KT CAVOK 15/09 Q1024
05:20
V
15 °C 10 km+ - 090° 090° 3 kt METAR EDDS 100320Z AUTO 09003KT 050V120 CAVOK 15/09 Q1024
04:50
V
15 °C 10 km+ - 100° 100° 3 kt METAR EDDS 100250Z AUTO 10003KT 070V140 CAVOK 15/09 Q1024
04:20
V
15 °C 10 km+ - Var Var 2 kt METAR EDDS 100220Z AUTO VRB02KT CAVOK 15/09 Q1024
03:50
V
15 °C 10 km+ - Var Var 1 kt METAR EDDS 100150Z AUTO VRB01KT CAVOK 15/09 Q1024
03:20
V
16 °C 10 km+ - Var Var 1 kt METAR EDDS 100120Z AUTO VRB01KT CAVOK 16/09 Q1024
02:50
V
17 °C 10 km+ - 080° 080° 4 kt METAR EDDS 100050Z AUTO 08004KT CAVOK 17/09 Q1024
02:20
V
17 °C 10 km+ - 070° 070° 3 kt METAR EDDS 100020Z AUTO 07003KT CAVOK 17/09 Q1024
01:50
V
17 °C 10 km+ - 070° 070° 4 kt METAR EDDS 092350Z AUTO 07004KT CAVOK 17/09 Q1024
01:20
V
18 °C 10 km+ - 090° 090° 5 kt METAR EDDS 092320Z AUTO 09005KT CAVOK 18/09 Q1024
00:50
V
17 °C 10 km+ - 090° 090° 2 kt METAR EDDS 092250Z AUTO 09002KT CAVOK 17/09 Q1024
00:20
V
18 °C 10 km+ - 050° 050° 2 kt METAR EDDS 092220Z AUTO 05002KT CAVOK 18/09 Q1024

August 9, 2022

Time Code Weather Temp. Visibility Ceiling Wind METAR/SPECI
23:50
V
19 °C 10 km+ - 120° 120° 2 kt METAR EDDS 092150Z AUTO 12002KT CAVOK 19/08 Q1024
23:20
V
19 °C 10 km+ - Var Var 2 kt METAR EDDS 092120Z AUTO VRB02KT CAVOK 19/08 Q1024
22:50
V
20 °C 10 km+ - 060° 060° 2 kt METAR EDDS 092050Z AUTO 06002KT CAVOK 20/08 Q1024
22:20
V
22 °C 10 km+ - 060° 060° 3 kt METAR EDDS 092020Z AUTO 06003KT 010V100 CAVOK 22/08 Q1024
21:50
V
22 °C 10 km+ - 110° 110° 3 kt METAR EDDS 091950Z AUTO 11003KT 040V150 CAVOK 22/08 Q1024 NOSIG
21:20
V
24 °C 10 km+ - 040° 040° 6 kt METAR EDDS 091920Z AUTO 04006KT CAVOK 24/07 Q1024 NOSIG
20:50
V
23 °C 10 km+ - 060° 060° 7 kt METAR EDDS 091850Z AUTO 06007KT CAVOK 23/07 Q1023 NOSIG
20:20
V
25 °C 10 km+ - 070° 070° 8 kt METAR EDDS 091820Z AUTO 07008KT CAVOK 25/07 Q1023 NOSIG
19:50
V
26 °C 10 km+ - 070° 070° 8 kt METAR EDDS 091750Z AUTO 07008KT CAVOK 26/07 Q1023 NOSIG
19:20
V
27 °C 10 km+ - 060° 060° 10 kt METAR EDDS 091720Z AUTO 06010KT CAVOK 27/07 Q1023 NOSIG
18:50
V
28 °C 10 km+ - 070° 070° 10 kt METAR EDDS 091650Z AUTO 07010KT 040V100 CAVOK 28/07 Q1023 NOSIG
18:20
V
28 °C 10 km+ - 090° 090° 10 kt METAR EDDS 091620Z AUTO 09010KT 060V140 CAVOK 28/06 Q1023 NOSIG
17:50
V
29 °C 10 km+ - 080° 080° 10 kt METAR EDDS 091550Z AUTO 08010KT 060V130 CAVOK 29/07 Q1023 NOSIG
17:20
V
29 °C 10 km+ - 060° 060° 10 kt METAR EDDS 091520Z AUTO 06010KT 020V080 CAVOK 29/06 Q1023 NOSIG
16:50
V
29 °C 10 km+ - 060° 060° 11 kt METAR EDDS 091450Z AUTO 06011KT 040V110 CAVOK 29/07 Q1023 NOSIG
16:20
V
29 °C 10 km+ - 050° 050° 9 kt METAR EDDS 091420Z AUTO 05009KT 030V090 CAVOK 29/07 Q1023 NOSIG
15:50
V
28 °C 10 km+ - Var Var 6 kt METAR EDDS 091350Z AUTO VRB06KT CAVOK 28/07 Q1023 NOSIG
15:20
V
28 °C 10 km+ - 080° 080° 10 kt METAR EDDS 091320Z AUTO 08010KT 010V140 CAVOK 28/08 Q1023 NOSIG
14:50
V
28 °C 10 km+ - 090° 090° 9 kt METAR EDDS 091250Z AUTO 09009KT 050V160 CAVOK 28/09 Q1024 NOSIG
14:20
V
28 °C 10 km+ - 070° 070° 9 kt METAR EDDS 091220Z AUTO 07009KT 040V110 CAVOK 28/07 Q1024 NOSIG
13:50
V
27 °C 10 km+ - 070° 070° 9 kt METAR EDDS 091150Z AUTO 07009KT 030V110 CAVOK 27/08 Q1024 NOSIG
13:20
V
27 °C 10 km+ - 090° 090° 8 kt METAR EDDS 091120Z AUTO 09008KT 060V140 CAVOK 27/09 Q1024 NOSIG
12:50
V
27 °C 10 km+ - 100° 100° 7 kt METAR EDDS 091050Z AUTO 10007KT 040V160 CAVOK 27/10 Q1024 NOSIG
12:20
V
26 °C 10 km+ - 100° 100° 8 kt METAR EDDS 091020Z AUTO 10008KT 030V160 CAVOK 26/10 Q1025 NOSIG
11:50
V
25 °C 10 km+ - 090° 090° 9 kt METAR EDDS 090950Z AUTO 09009KT 060V130 CAVOK 25/10 Q1025 NOSIG
11:20
V
25 °C 10 km+ - 080° 080° 9 kt METAR EDDS 090920Z AUTO 08009KT 040V120 CAVOK 25/11 Q1025 NOSIG
10:50
V
24 °C 10 km+ - 070° 070° 7 kt METAR EDDS 090850Z AUTO 07007KT 030V100 CAVOK 24/11 Q1025 NOSIG
10:20
V
23 °C 10 km+ - 080° 080° 6 kt METAR EDDS 090820Z AUTO 08006KT 050V150 CAVOK 23/11 Q1025 NOSIG
09:50
V
22 °C 10 km+ - 080° 080° 5 kt METAR EDDS 090750Z AUTO 08005KT 020V120 CAVOK 22/11 Q1025
09:20
V
20 °C 10 km+ - 090° 090° 4 kt METAR EDDS 090720Z AUTO 09004KT 060V140 CAVOK 20/10 Q1025
08:50
V
19 °C 10 km+ - Var Var 2 kt METAR EDDS 090650Z AUTO VRB02KT CAVOK 19/10 Q1024
08:20
V
18 °C 10 km+ - Var Var 2 kt METAR EDDS 090620Z AUTO VRB02KT CAVOK 18/10 Q1024
07:50
V
17 °C 10 km+ - Var Var 2 kt METAR EDDS 090550Z AUTO VRB02KT CAVOK 17/10 Q1024
07:20
V
17 °C 10 km+ - 330° 330° 3 kt METAR EDDS 090520Z AUTO 33003KT 300V020 CAVOK 17/10 Q1024
06:50
V
15 °C 10 km+ - Var Var 2 kt METAR EDDS 090450Z AUTO VRB02KT CAVOK 15/09 Q1024
06:20
V
14 °C 10 km+ - Var Var 1 kt METAR EDDS 090420Z AUTO VRB01KT CAVOK 14/09 Q1023
05:50
V
14 °C 10 km+ - 300° 300° 3 kt METAR EDDS 090350Z AUTO 30003KT CAVOK 14/08 Q1023
05:20
V
14 °C 10 km+ - 300° 300° 3 kt METAR EDDS 090320Z AUTO 30003KT CAVOK 14/09 Q1023
04:50
V
15 °C 10 km+ - Var Var 2 kt METAR EDDS 090250Z AUTO VRB02KT CAVOK 15/09 Q1023
04:20
V
14 °C 10 km+ - 330° 330° 4 kt METAR EDDS 090220Z AUTO 33004KT CAVOK 14/09 Q1023
03:50
V
15 °C 10 km+ - Var Var 1 kt METAR EDDS 090150Z AUTO VRB01KT CAVOK 15/08 Q1023
03:20
V
15 °C 10 km+ - Var Var 1 kt METAR EDDS 090120Z AUTO VRB01KT CAVOK 15/09 Q1023
02:50
V
15 °C 10 km+ - 330° 330° 3 kt METAR EDDS 090050Z AUTO 33003KT 290V350 CAVOK 15/09 Q1023
02:20
V
17 °C 10 km+ - Var Var 2 kt METAR EDDS 090020Z AUTO VRB02KT CAVOK 17/08 Q1023
01:50
V
16 °C 10 km+ - 310° 310° 3 kt METAR EDDS 082350Z AUTO 31003KT CAVOK 16/09 Q1023
01:20
V
17 °C 10 km+ - 280° 280° 2 kt METAR EDDS 082320Z AUTO 28002KT CAVOK 17/09 Q1023
00:50
V
17 °C 10 km+ - 300° 300° 3 kt METAR EDDS 082250Z AUTO 30003KT 270V330 CAVOK 17/08 Q1023
00:20
V
19 °C 10 km+ - Var Var 2 kt METAR EDDS 082220Z AUTO VRB02KT CAVOK 19/08 Q1023

August 8, 2022

Time Code Weather Temp. Visibility Ceiling Wind METAR/SPECI
23:50
V
21 °C 10 km+ - 350° 350° 4 kt METAR EDDS 082150Z AUTO 35004KT CAVOK 21/07 Q1023
23:20
V
20 °C 10 km+ - Var Var 1 kt METAR EDDS 082120Z AUTO VRB01KT CAVOK 20/07 Q1023
22:50
V
20 °C 10 km+ - Var Var 1 kt METAR EDDS 082050Z AUTO VRB01KT CAVOK 20/07 Q1023
22:20
V
21 °C 10 km+ - Var Var 1 kt METAR EDDS 082020Z AUTO VRB01KT CAVOK 21/07 Q1023 NOSIG
21:50
V
22 °C 10 km+ - 040° 040° 5 kt METAR EDDS 081950Z AUTO 04005KT CAVOK 22/07 Q1023 NOSIG
21:20
V
23 °C 10 km+ - 030° 030° 6 kt METAR EDDS 081920Z AUTO 03006KT CAVOK 23/06 Q1022 NOSIG
20:50
V
24 °C 10 km+ - 030° 030° 5 kt METAR EDDS 081850Z AUTO 03005KT CAVOK 24/06 Q1022 NOSIG
20:20
V
25 °C 10 km+ - 040° 040° 7 kt METAR EDDS 081820Z AUTO 04007KT CAVOK 25/06 Q1022 NOSIG
19:50
V
26 °C 10 km+ - 030° 030° 8 kt METAR EDDS 081750Z AUTO 03008KT CAVOK 26/06 Q1021 NOSIG
19:20
V
27 °C 10 km+ - 080° 080° 6 kt METAR EDDS 081720Z AUTO 08006KT 050V110 CAVOK 27/08 Q1021 NOSIG
18:50
V
28 °C 10 km+ - 080° 080° 5 kt METAR EDDS 081650Z AUTO 08005KT 020V110 CAVOK 28/07 Q1021 NOSIG
18:20
V
28 °C 10 km+ - 070° 070° 4 kt METAR EDDS 081620Z AUTO 07004KT 350V140 CAVOK 28/08 Q1021 NOSIG
17:50
V
28 °C 10 km+ - 060° 060° 4 kt METAR EDDS 081550Z AUTO 06004KT 020V150 CAVOK 28/08 Q1021 NOSIG
17:20
V
28 °C 10 km+ - 120° 120° 6 kt METAR EDDS 081520Z AUTO 12006KT 030V180 CAVOK 28/07 Q1021 NOSIG
16:50
V
28 °C 10 km+ - 100° 100° 7 kt METAR EDDS 081450Z AUTO 10007KT 060V190 CAVOK 28/07 Q1021 NOSIG
Older data

We and third parties follow your internet behavior on our website with cookies. If you continue, we assume you agree with our cookie policy. Learn more